createdAt,value
2022-09-23T00:17:57.933Z,101553.97
2022-09-23T00:21:07.893Z,101553.81
2022-09-23T00:27:59.931Z,101551.94
2022-09-23T00:30:59.498Z,101551.78
2022-09-23T00:33:50.092Z,101549.56
2022-09-23T00:39:43.345Z,101544.66
2022-09-23T00:43:33.063Z,101545.19
2022-09-23T01:12:41.962Z,101554.78
2022-09-23T01:25:55.368Z,101556.59
2022-09-23T01:29:09.610Z,101550.81
2022-09-23T01:52:26.086Z,101548.47
2022-09-23T01:55:32.424Z,101554.19
2022-09-23T02:02:23.857Z,101551.47
2022-09-23T02:05:30.601Z,101553.81
2022-09-23T02:08:26.988Z,101554.25
2022-09-23T02:11:23.971Z,101555.75
2022-09-23T02:14:31.172Z,101554.38
2022-09-23T02:25:28.724Z,101552.28
2022-09-23T02:39:34.638Z,101562.25
2022-09-23T02:51:22.274Z,101569.22
2022-09-23T03:09:27.280Z,101568.72
2022-09-23T03:19:24.638Z,101579.00
2022-09-23T03:28:52.806Z,101586.00
2022-09-23T03:31:53.383Z,101583.56
2022-09-23T03:34:52.440Z,101594.53
2022-09-23T03:37:54.745Z,101586.72
2022-09-23T03:41:26.629Z,101586.06
2022-09-23T03:43:55.748Z,101599.00
2022-09-23T03:46:30.771Z,101604.41
2022-09-23T03:49:21.642Z,101603.56
2022-09-23T03:51:49.984Z,101603.97
2022-09-23T04:01:27.355Z,101610.72
2022-09-23T04:03:56.360Z,101604.78
2022-09-23T04:11:53.682Z,101620.34
2022-09-23T04:25:47.790Z,101617.03
2022-09-23T04:32:49.240Z,101620.00
2022-09-23T04:35:46.838Z,101626.34
2022-09-23T04:41:53.060Z,101616.44
2022-09-23T04:44:54.984Z,101620.97
2022-09-23T04:47:47.936Z,101622.38
2022-09-23T05:00:15.409Z,101610.41
2022-09-23T05:02:54.031Z,101611.81
2022-09-23T05:05:57.988Z,101607.13
2022-09-23T05:08:53.433Z,101607.84
2022-09-23T05:11:47.028Z,101605.81
2022-09-23T05:14:47.718Z,101609.03
2022-09-23T05:17:50.781Z,101600.03
2022-09-23T05:20:51.181Z,101597.91
2022-09-23T05:23:46.170Z,101597.59
2022-09-23T05:31:51.199Z,101602.63
2022-09-23T05:37:47.492Z,101596.81
2022-09-23T05:40:31.024Z,101605.31
2022-09-23T05:50:16.611Z,101600.69
2022-09-23T06:13:31.714Z,101590.00
2022-09-23T06:16:19.417Z,101593.28
2022-09-23T06:29:19.696Z,101584.94
2022-09-23T06:31:51.685Z,101586.81
2022-09-23T06:37:23.434Z,101579.56
2022-09-23T06:46:19.838Z,101577.81
2022-09-23T06:49:21.872Z,101575.78
2022-09-23T06:52:22.161Z,101574.72
2022-09-23T06:58:20.824Z,101572.69
2022-09-23T07:04:41.169Z,101564.63
2022-09-23T07:07:22.507Z,101578.91
2022-09-23T07:10:22.391Z,101577.19
2022-09-23T07:13:16.168Z,101576.00
2022-09-23T07:16:02.193Z,101574.81
2022-09-23T07:19:16.189Z,101571.41
2022-09-23T07:22:16.395Z,101564.00
2022-09-23T07:27:43.416Z,101560.97
2022-09-23T07:30:38.307Z,101562.19
2022-09-23T07:34:12.688Z,101557.56
2022-09-23T07:45:23.014Z,101563.75
2022-09-23T07:48:46.800Z,101564.72
2022-09-23T07:58:44.655Z,101578.66
2022-09-23T08:09:45.283Z,101583.78
2022-09-23T08:15:45.905Z,101586.81
2022-09-23T08:18:18.796Z,101593.28
2022-09-23T08:35:45.293Z,101595.00
2022-09-23T08:45:39.638Z,101602.72
2022-09-23T08:48:37.716Z,101604.06
2022-09-23T08:51:15.197Z,101605.25
2022-09-23T08:57:04.109Z,101604.16
2022-09-23T08:59:46.156Z,101603.41
2022-09-23T09:02:25.077Z,101607.94
2022-09-23T09:05:33.746Z,101606.84
2022-09-23T09:08:34.683Z,101611.34
2022-09-23T09:11:40.023Z,101610.50
2022-09-23T09:14:39.637Z,101611.47
2022-09-23T09:17:43.047Z,101609.53
2022-09-23T09:20:38.021Z,101610.63
2022-09-23T09:23:41.854Z,101607.22
2022-09-23T09:26:37.237Z,101615.25
2022-09-23T09:29:40.121Z,101611.94
2022-09-23T09:32:47.090Z,101606.22
2022-09-23T09:35:41.871Z,101604.00
2022-09-23T09:38:40.631Z,101604.50
2022-09-23T09:41:33.760Z,101607.66
2022-09-23T09:44:08.803Z,101611.91
2022-09-23T09:46:46.720Z,101605.78
2022-09-23T09:49:40.722Z,101606.66
2022-09-23T09:55:32.422Z,101604.41
2022-09-23T09:58:34.847Z,101599.25
2022-09-23T10:01:06.538Z,101602.06
2022-09-23T10:03:42.687Z,101595.75
2022-09-23T10:06:34.576Z,101595.63
2022-09-23T10:09:36.300Z,101601.09
2022-09-23T10:13:02.821Z,101589.53
2022-09-23T10:16:05.956Z,101591.56
2022-09-23T10:19:14.818Z,101597.53
2022-09-23T10:26:36.887Z,101587.34
2022-09-23T10:30:10.335Z,101587.22
2022-09-23T10:33:00.314Z,101589.69
2022-09-23T10:36:06.888Z,101590.75
2022-09-23T10:43:08.787Z,101589.25
2022-09-23T10:46:27.847Z,101595.28
2022-09-23T10:49:28.171Z,101589.53
2022-09-23T10:52:57.296Z,101585.88
2022-09-23T10:55:57.822Z,101587.59
2022-09-23T10:59:01.193Z,101591.75
2022-09-23T11:02:02.917Z,101582.75
2022-09-23T11:05:09.052Z,101588.59
2022-09-23T11:08:26.984Z,101584.00
2022-09-23T11:11:01.925Z,101589.38
2022-09-23T11:14:07.554Z,101584.16
2022-09-23T11:21:36.695Z,101584.56
2022-09-23T11:42:56.093Z,101578.19
2022-09-23T11:51:30.710Z,101583.41
2022-09-23T11:54:44.531Z,101580.50
2022-09-23T12:01:37.312Z,101583.00
2022-09-23T12:11:28.441Z,101577.63
2022-09-23T12:14:51.831Z,101576.16
2022-09-23T12:24:04.082Z,101570.47
2022-09-23T12:26:37.542Z,101575.59
2022-09-23T12:29:11.694Z,101575.47
2022-09-23T12:31:52.413Z,101580.00
2022-09-23T12:34:31.608Z,101575.72
2022-09-23T12:37:05.327Z,101570.34
2022-09-23T12:40:25.925Z,101576.66
2022-09-23T12:42:52.137Z,101575.19
2022-09-23T12:45:51.150Z,101579.78
2022-09-23T12:48:19.326Z,101583.13
2022-09-23T12:50:57.729Z,101585.41
2022-09-23T12:53:35.529Z,101582.56
2022-09-23T12:56:17.492Z,101587.00
2022-09-23T12:58:48.572Z,101582.47
2022-09-23T13:01:18.032Z,101585.88
2022-09-23T13:04:11.839Z,101585.75
2022-09-23T13:06:59.753Z,101590.03
2022-09-23T13:09:31.542Z,101590.78
2022-09-23T13:12:03.827Z,101591.28
2022-09-23T13:14:34.741Z,101593.63
2022-09-23T13:17:16.557Z,101594.72
2022-09-23T13:19:46.548Z,101596.88
2022-09-23T13:25:43.618Z,101601.03
2022-09-23T13:28:50.422Z,101594.50
2022-09-23T13:31:47.989Z,101597.06
2022-09-23T13:34:22.132Z,101598.97
2022-09-23T13:36:50.810Z,101598.38
2022-09-23T13:39:48.887Z,101600.50
2022-09-23T13:42:47.027Z,101602.69
2022-09-23T13:45:23.744Z,101595.63
2022-09-23T13:47:54.315Z,101601.81
2022-09-23T13:53:56.557Z,101602.81
2022-09-23T13:56:45.244Z,101601.09
2022-09-23T13:59:56.355Z,101603.88
2022-09-23T14:02:46.627Z,101598.53
2022-09-23T14:06:09.309Z,101597.56
2022-09-23T14:08:45.737Z,101602.50
2022-09-23T14:11:43.164Z,101605.31
2022-09-23T14:14:46.670Z,101612.38
2022-09-23T14:17:47.041Z,101609.59
2022-09-23T14:20:35.764Z,101604.22
2022-09-23T14:23:14.232Z,101615.91
2022-09-23T14:25:45.581Z,101613.34
2022-09-23T14:28:34.255Z,101616.66
2022-09-23T14:31:11.416Z,101615.56
2022-09-23T14:33:45.197Z,101614.50
2022-09-23T14:36:37.767Z,101620.50
2022-09-23T14:39:12.196Z,101621.84
2022-09-23T14:41:51.964Z,101614.78
2022-09-23T14:45:11.127Z,101623.22
2022-09-23T14:47:52.839Z,101628.63
2022-09-23T14:50:54.955Z,101622.47
2022-09-23T14:54:11.094Z,101635.06
2022-09-23T14:57:19.098Z,101630.59
2022-09-23T15:00:22.425Z,101631.88
2022-09-23T15:03:32.730Z,101633.72
2022-09-23T15:06:13.914Z,101630.09
2022-09-23T15:09:06.993Z,101631.09
2022-09-23T15:15:09.876Z,101634.53
2022-09-23T15:17:41.603Z,101624.78
2022-09-23T15:20:29.594Z,101624.03
2022-09-23T15:23:39.369Z,101633.06
2022-09-23T15:26:17.203Z,101627.97
2022-09-23T15:31:40.233Z,101635.28
2022-09-23T15:34:12.528Z,101633.09
2022-09-23T15:36:40.957Z,101637.75
2022-09-23T15:39:14.440Z,101637.84
2022-09-23T15:42:15.644Z,101640.13
2022-09-23T15:44:43.919Z,101642.78
2022-09-23T15:48:14.740Z,101645.19
2022-09-23T15:50:40.890Z,101646.34
2022-09-23T15:53:18.375Z,101649.47
2022-09-23T15:56:06.209Z,101648.56
2022-09-23T15:58:38.789Z,101648.50
2022-09-23T16:01:38.368Z,101651.00
2022-09-23T16:07:57.155Z,101650.88
2022-09-23T16:10:37.649Z,101659.50
2022-09-23T16:13:40.593Z,101648.63
2022-09-23T16:16:41.633Z,101655.41
2022-09-23T16:24:03.308Z,101652.56
2022-09-23T16:29:51.077Z,101657.97
2022-09-23T16:32:46.245Z,101660.88
2022-09-23T16:35:45.942Z,101658.06
2022-09-23T23:22:57.242Z,101323.47
2022-09-23T23:25:34.713Z,101318.81
2022-09-23T23:28:39.869Z,101321.34
2022-09-23T23:31:57.793Z,101314.44
2022-09-23T23:34:28.739Z,101313.97
2022-09-23T23:36:57.117Z,101311.66
2022-09-23T23:39:54.725Z,101310.81
2022-09-23T23:46:04.879Z,101310.75
2022-09-23T23:48:58.481Z,101308.91
2022-09-23T23:59:25.762Z,101299.31
